sensor_id;sensor_type;location;lat;lon;timestamp;P1;P2;P0
24012;PMS7003;12220;50.194;18.948;2023-02-27T00:00:47;11;8;7
24012;PMS7003;12220;50.194;18.948;2023-02-27T00:02:54;10;10;6
24012;PMS7003;12220;50.194;18.948;2023-02-27T00:04:55;3;2;2
24012;PMS7003;12220;50.194;18.948;2023-02-27T00:06:57;10;8;6
24012;PMS7003;12220;50.194;18.948;2023-02-27T00:09:02;8;6;4
24012;PMS7003;12220;50.194;18.948;2023-02-27T00:11:04;10;9;7
24012;PMS7003;12220;50.194;18.948;2023-02-27T00:13:05;10;9;6
24012;PMS7003;12220;50.194;18.948;2023-02-27T00:15:11;11;7;6
24012;PMS7003;12220;50.194;18.948;2023-02-27T00:17:17;5;5;4
24012;PMS7003;12220;50.194;18.948;2023-02-27T00:19:19;5;5;3
24012;PMS7003;12220;50.194;18.948;2023-02-27T00:21:22;7;7;5
24012;PMS7003;12220;50.194;18.948;2023-02-27T00:23:23;5;5;3
24012;PMS7003;12220;50.194;18.948;2023-02-27T00:25:33;9;9;5
24012;PMS7003;12220;50.194;18.948;2023-02-27T00:27:35;10;6;5
24012;PMS7003;12220;50.194;18.948;2023-02-27T00:29:37;5;5;4
24012;PMS7003;12220;50.194;18.948;2023-02-27T00:31:38;7;7;5
24012;PMS7003;12220;50.194;18.948;2023-02-27T00:33:48;7;6;4
24012;PMS7003;12220;50.194;18.948;2023-02-27T00:38:01;7;6;6
24012;PMS7003;12220;50.194;18.948;2023-02-27T00:40:03;3;3;2
24012;PMS7003;12220;50.194;18.948;2023-02-27T00:42:06;9;7;5
24012;PMS7003;12220;50.194;18.948;2023-02-27T00:44:08;6;5;3
24012;PMS7003;12220;50.194;18.948;2023-02-27T00:46:09;7;7;5
24012;PMS7003;12220;50.194;18.948;2023-02-27T00:48:11;10;7;4
24012;PMS7003;12220;50.194;18.948;2023-02-27T00:50:21;10;5;4
24012;PMS7003;12220;50.194;18.948;2023-02-27T00:52:23;9;5;3
24012;PMS7003;12220;50.194;18.948;2023-02-27T00:54:25;7;7;5
24012;PMS7003;12220;50.194;18.948;2023-02-27T00:56:26;7;6;4
24012;PMS7003;12220;50.194;18.948;2023-02-27T00:58:36;5;3;2
24012;PMS7003;12220;50.194;18.948;2023-02-27T01:00:40;6;4;3
24012;PMS7003;12220;50.194;18.948;2023-02-27T01:02:42;5;5;3
24012;PMS7003;12220;50.194;18.948;2023-02-27T01:04:44;5;5;4
24012;PMS7003;12220;50.194;18.948;2023-02-27T01:06:51;5;5;3
24012;PMS7003;12220;50.194;18.948;2023-02-27T01:08:53;4;4;4
24012;PMS7003;12220;50.194;18.948;2023-02-27T01:10:55;3;3;2
24012;PMS7003;12220;50.194;18.948;2023-02-27T01:12:58;5;4;2
24012;PMS7003;12220;50.194;18.948;2023-02-27T01:15:07;5;5;4
24012;PMS7003;12220;50.194;18.948;2023-02-27T01:17:12;7;7;6
24012;PMS7003;12220;50.194;18.948;2023-02-27T01:19:14;5;4;2
24012;PMS7003;12220;50.194;18.948;2023-02-27T01:21:18;5;5;3
24012;PMS7003;12220;50.194;18.948;2023-02-27T01:23:23;4;4;3
24012;PMS7003;12220;50.194;18.948;2023-02-27T01:25:24;5;4;3
24012;PMS7003;12220;50.194;18.948;2023-02-27T01:27:26;3;3;3
24012;PMS7003;12220;50.194;18.948;2023-02-27T01:29:27;7;4;3
24012;PMS7003;12220;50.194;18.948;2023-02-27T01:31:37;4;4;2
24012;PMS7003;12220;50.194;18.948;2023-02-27T01:33:40;5;3;3
24012;PMS7003;12220;50.194;18.948;2023-02-27T01:35:42;3;3;2
24012;PMS7003;12220;50.194;18.948;2023-02-27T01:37:43;3;3;2
24012;PMS7003;12220;50.194;18.948;2023-02-27T01:39:52;1;1;0
24012;PMS7003;12220;50.194;18.948;2023-02-27T01:41:53;2;2;1
24012;PMS7003;12220;50.194;18.948;2023-02-27T01:43:59;4;2;2
24012;PMS7003;12220;50.194;18.948;2023-02-27T01:46:03;2;2;2
24012;PMS7003;12220;50.194;18.948;2023-02-27T01:48:15;3;3;2
24012;PMS7003;12220;50.194;18.948;2023-02-27T01:50:28;6;3;1
24012;PMS7003;12220;50.194;18.948;2023-02-27T01:52:31;6;3;2
24012;PMS7003;12220;50.194;18.948;2023-02-27T01:54:37;3;3;2
24012;PMS7003;12220;50.194;18.948;2023-02-27T01:56:41;2;2;1
24012;PMS7003;12220;50.194;18.948;2023-02-27T01:58:47;1;1;1
24012;PMS7003;12220;50.194;18.948;2023-02-27T02:00:52;1;1;0
24012;PMS7003;12220;50.194;18.948;2023-02-27T02:02:59;2;2;2
24012;PMS7003;12220;50.194;18.948;2023-02-27T02:05:09;1;1;1
24012;PMS7003;12220;50.194;18.948;2023-02-27T02:07:16;0;0;0
24012;PMS7003;12220;50.194;18.948;2023-02-27T02:09:24;3;3;1
24012;PMS7003;12220;50.194;18.948;2023-02-27T02:11:27;1;1;1
24012;PMS7003;12220;50.194;18.948;2023-02-27T02:13:29;2;1;1
24012;PMS7003;12220;50.194;18.948;2023-02-27T02:15:35;2;1;1
24012;PMS7003;12220;50.194;18.948;2023-02-27T02:58:02;3;3;3
24012;PMS7003;12220;50.194;18.948;2023-02-27T03:00:06;4;4;3
24012;PMS7003;12220;50.194;18.948;2023-02-27T03:02:28;2;2;1
24012;PMS7003;12220;50.194;18.948;2023-02-27T03:04:42;5;4;3
24012;PMS7003;12220;50.194;18.948;2023-02-27T03:08:55;7;7;5
24012;PMS7003;12220;50.194;18.948;2023-02-27T03:11:03;7;6;5
24012;PMS7003;12220;50.194;18.948;2023-02-27T03:13:13;7;7;4
24012;PMS7003;12220;50.194;18.948;2023-02-27T03:15:38;6;4;3
24012;PMS7003;12220;50.194;18.948;2023-02-27T03:18:01;3;3;3
24012;PMS7003;12220;50.194;18.948;2023-02-27T03:20:18;5;5;3
24012;PMS7003;12220;50.194;18.948;2023-02-27T03:22:35;6;5;4
24012;PMS7003;12220;50.194;18.948;2023-02-27T03:26:50;11;7;5
24012;PMS7003;12220;50.194;18.948;2023-02-27T03:29:18;7;4;4
24012;PMS7003;12220;50.194;18.948;2023-02-27T03:31:17;5;5;4
24012;PMS7003;12220;50.194;18.948;2023-02-27T03:33:26;5;4;3
24012;PMS7003;12220;50.194;18.948;2023-02-27T03:35:44;10;5;3
24012;PMS7003;12220;50.194;18.948;2023-02-27T03:38:07;5;5;3
24012;PMS7003;12220;50.194;18.948;2023-02-27T03:42:46;4;2;1
24012;PMS7003;12220;50.194;18.948;2023-02-27T03:47:25;7;4;3
24012;PMS7003;12220;50.194;18.948;2023-02-27T03:49:28;4;4;3
24012;PMS7003;12220;50.194;18.948;2023-02-27T03:51:29;3;3;3
24012;PMS7003;12220;50.194;18.948;2023-02-27T03:53:36;3;3;2
24012;PMS7003;12220;50.194;18.948;2023-02-27T03:55:42;9;4;3
24012;PMS7003;12220;50.194;18.948;2023-02-27T03:57:49;8;4;3
24012;PMS7003;12220;50.194;18.948;2023-02-27T03:59:52;6;6;5
24012;PMS7003;12220;50.194;18.948;2023-02-27T04:01:54;6;2;0
24012;PMS7003;12220;50.194;18.948;2023-02-27T04:04:01;5;5;4
24012;PMS7003;12220;50.194;18.948;2023-02-27T04:06:07;3;3;3
24012;PMS7003;12220;50.194;18.948;2023-02-27T04:10:38;3;3;2
24012;PMS7003;12220;50.194;18.948;2023-02-27T04:12:49;4;4;3
24012;PMS7003;12220;50.194;18.948;2023-02-27T04:15:06;6;3;2
24012;PMS7003;12220;50.194;18.948;2023-02-27T04:24:16;6;5;3
24012;PMS7003;12220;50.194;18.948;2023-02-27T04:26:53;5;3;3
24012;PMS7003;12220;50.194;18.948;2023-02-27T04:29:01;3;3;3
24012;PMS7003;12220;50.194;18.948;2023-02-27T04:40:44;7;4;4
24012;PMS7003;12220;50.194;18.948;2023-02-27T04:42:52;4;4;3
24012;PMS7003;12220;50.194;18.948;2023-02-27T04:44:57;1;1;1
24012;PMS7003;12220;50.194;18.948;2023-02-27T04:47:04;3;3;2
24012;PMS7003;12220;50.194;18.948;2023-02-27T04:49:16;4;4;3
24012;PMS7003;12220;50.194;18.948;2023-02-27T04:53:46;5;4;2
24012;PMS7003;12220;50.194;18.948;2023-02-27T04:55:56;5;3;3
24012;PMS7003;12220;50.194;18.948;2023-02-27T04:58:08;2;2;2
24012;PMS7003;12220;50.194;18.948;2023-02-27T05:00:15;4;3;3
24012;PMS7003;12220;50.194;18.948;2023-02-27T05:04:34;4;4;3
24012;PMS7003;12220;50.194;18.948;2023-02-27T05:06:40;6;5;3
24012;PMS7003;12220;50.194;18.948;2023-02-27T05:09:05;6;6;4
24012;PMS7003;12220;50.194;18.948;2023-02-27T05:11:04;6;4;3
24012;PMS7003;12220;50.194;18.948;2023-02-27T05:13:15;8;3;3
24012;PMS7003;12220;50.194;18.948;2023-02-27T05:15:27;6;4;3
24012;PMS7003;12220;50.194;18.948;2023-02-27T05:19:53;3;3;2
24012;PMS7003;12220;50.194;18.948;2023-02-27T05:22:08;5;4;3
24012;PMS7003;12220;50.194;18.948;2023-02-27T05:24:15;1;1;1
24012;PMS7003;12220;50.194;18.948;2023-02-27T05:35:19;7;5;3
24012;PMS7003;12220;50.194;18.948;2023-02-27T05:37:44;7;5;3
24012;PMS7003;12220;50.194;18.948;2023-02-27T05:39:50;5;5;3
24012;PMS7003;12220;50.194;18.948;2023-02-27T05:41:53;6;5;4
24012;PMS7003;12220;50.194;18.948;2023-02-27T05:46:15;12;9;7
24012;PMS7003;12220;50.194;18.948;2023-02-27T05:50:43;5;4;3
24012;PMS7003;12220;50.194;18.948;2023-02-27T05:52:48;7;6;5
24012;PMS7003;12220;50.194;18.948;2023-02-27T05:54:58;6;5;4
24012;PMS7003;12220;50.194;18.948;2023-02-27T05:57:09;4;4;3
24012;PMS7003;12220;50.194;18.948;2023-02-27T05:59:34;10;7;3
24012;PMS7003;12220;50.194;18.948;2023-02-27T06:01:30;8;7;5
24012;PMS7003;12220;50.194;18.948;2023-02-27T06:03:41;7;6;4
24012;PMS7003;12220;50.194;18.948;2023-02-27T06:05:43;5;5;3
24012;PMS7003;12220;50.194;18.948;2023-02-27T06:07:49;7;5;4
24012;PMS7003;12220;50.194;18.948;2023-02-27T06:09:51;9;5;3
24012;PMS7003;12220;50.194;18.948;2023-02-27T06:11:56;4;4;2
24012;PMS7003;12220;50.194;18.948;2023-02-27T06:14:00;6;6;5
24012;PMS7003;12220;50.194;18.948;2023-02-27T06:20:56;11;8;7
24012;PMS7003;12220;50.194;18.948;2023-02-27T06:22:57;7;6;4
24012;PMS7003;12220;50.194;18.948;2023-02-27T06:25:07;9;9;7
24012;PMS7003;12220;50.194;18.948;2023-02-27T06:27:10;8;8;5
24012;PMS7003;12220;50.194;18.948;2023-02-27T06:29:11;6;6;5
24012;PMS7003;12220;50.194;18.948;2023-02-27T06:31:16;5;5;4
24012;PMS7003;12220;50.194;18.948;2023-02-27T06:33:23;8;8;6
24012;PMS7003;12220;50.194;18.948;2023-02-27T06:35:26;8;6;5
24012;PMS7003;12220;50.194;18.948;2023-02-27T06:37:29;8;6;5
24012;PMS7003;12220;50.194;18.948;2023-02-27T06:39:30;11;9;7
24012;PMS7003;12220;50.194;18.948;2023-02-27T06:41:37;10;8;6
24012;PMS7003;12220;50.194;18.948;2023-02-27T06:43:41;5;5;4
24012;PMS7003;12220;50.194;18.948;2023-02-27T06:45:43;10;8;7
24012;PMS7003;12220;50.194;18.948;2023-02-27T06:47:45;5;5;3
24012;PMS7003;12220;50.194;18.948;2023-02-27T06:49:53;11;7;6
24012;PMS7003;12220;50.194;18.948;2023-02-27T06:51:54;6;6;5
24012;PMS7003;12220;50.194;18.948;2023-02-27T06:53:56;7;7;5
24012;PMS7003;12220;50.194;18.948;2023-02-27T06:55:58;9;8;5
24012;PMS7003;12220;50.194;18.948;2023-02-27T06:58:08;8;8;6
24012;PMS7003;12220;50.194;18.948;2023-02-27T07:00:10;7;4;3
24012;PMS7003;12220;50.194;18.948;2023-02-27T07:02:13;7;6;4
24012;PMS7003;12220;50.194;18.948;2023-02-27T07:04:16;5;5;4
24012;PMS7003;12220;50.194;18.948;2023-02-27T07:06:23;12;7;5
24012;PMS7003;12220;50.194;18.948;2023-02-27T07:08:24;8;5;4
24012;PMS7003;12220;50.194;18.948;2023-02-27T07:10:26;5;5;3
24012;PMS7003;12220;50.194;18.948;2023-02-27T07:12:28;9;6;5
24012;PMS7003;12220;50.194;18.948;2023-02-27T07:14:38;7;7;6
24012;PMS7003;12220;50.194;18.948;2023-02-27T07:16:45;11;9;7
24012;PMS7003;12220;50.194;18.948;2023-02-27T07:18:53;9;7;6
24012;PMS7003;12220;50.194;18.948;2023-02-27T07:20:57;9;6;5
24012;PMS7003;12220;50.194;18.948;2023-02-27T07:22:59;8;8;6
24012;PMS7003;12220;50.194;18.948;2023-02-27T07:25:01;6;6;6
24012;PMS7003;12220;50.194;18.948;2023-02-27T07:27:03;7;6;5
24012;PMS7003;12220;50.194;18.948;2023-02-27T07:29:05;11;9;5
24012;PMS7003;12220;50.194;18.948;2023-02-27T07:31:13;9;9;7
24012;PMS7003;12220;50.194;18.948;2023-02-27T07:33:17;9;7;6
24012;PMS7003;12220;50.194;18.948;2023-02-27T07:35:18;8;8;6
24012;PMS7003;12220;50.194;18.948;2023-02-27T07:37:20;8;8;6
24012;PMS7003;12220;50.194;18.948;2023-02-27T07:39:28;12;8;6
24012;PMS7003;12220;50.194;18.948;2023-02-27T07:41:30;9;6;5
24012;PMS7003;12220;50.194;18.948;2023-02-27T07:43:31;5;5;4
24012;PMS7003;12220;50.194;18.948;2023-02-27T07:45:33;8;8;6
24012;PMS7003;12220;50.194;18.948;2023-02-27T07:47:44;4;4;4
24012;PMS7003;12220;50.194;18.948;2023-02-27T07:49:49;9;8;5
24012;PMS7003;12220;50.194;18.948;2023-02-27T07:51:50;9;9;7
24012;PMS7003;12220;50.194;18.948;2023-02-27T07:53:54;7;7;5
24012;PMS7003;12220;50.194;18.948;2023-02-27T07:55:58;11;8;5
24012;PMS7003;12220;50.194;18.948;2023-02-27T07:58:00;12;9;7
24012;PMS7003;12220;50.194;18.948;2023-02-27T08:00:05;12;8;5
24012;PMS7003;12220;50.194;18.948;2023-02-27T08:02:10;8;7;6
24012;PMS7003;12220;50.194;18.948;2023-02-27T08:04:13;8;8;5
24012;PMS7003;12220;50.194;18.948;2023-02-27T08:06:15;7;7;5
24012;PMS7003;12220;50.194;18.948;2023-02-27T08:08:16;13;8;6
24012;PMS7003;12220;50.194;18.948;2023-02-27T08:10:18;10;10;7
24012;PMS7003;12220;50.194;18.948;2023-02-27T08:12:28;11;9;6
24012;PMS7003;12220;50.194;18.948;2023-02-27T08:14:31;7;7;6
24012;PMS7003;12220;50.194;18.948;2023-02-27T08:16:33;10;8;6
24012;PMS7003;12220;50.194;18.948;2023-02-27T08:18:34;10;9;6
24012;PMS7003;12220;50.194;18.948;2023-02-27T08:20:43;10;10;7
24012;PMS7003;12220;50.194;18.948;2023-02-27T08:22:48;7;7;6
24012;PMS7003;12220;50.194;18.948;2023-02-27T08:24:49;9;9;6
24012;PMS7003;12220;50.194;18.948;2023-02-27T08:26:51;9;7;4
24012;PMS7003;12220;50.194;18.948;2023-02-27T08:28:59;7;5;5
24012;PMS7003;12220;50.194;18.948;2023-02-27T08:31:03;10;10;6
24012;PMS7003;12220;50.194;18.948;2023-02-27T08:33:06;10;8;7
24012;PMS7003;12220;50.194;18.948;2023-02-27T08:35:08;6;6;4
24012;PMS7003;12220;50.194;18.948;2023-02-27T08:37:14;4;4;3
24012;PMS7003;12220;50.194;18.948;2023-02-27T08:39:15;5;5;4
24012;PMS7003;12220;50.194;18.948;2023-02-27T08:41:18;7;7;5
24012;PMS7003;12220;50.194;18.948;2023-02-27T08:43:20;5;5;3
24012;PMS7003;12220;50.194;18.948;2023-02-27T08:45:29;13;8;6
24012;PMS7003;12220;50.194;18.948;2023-02-27T08:54:55;8;8;5
24012;PMS7003;12220;50.194;18.948;2023-02-27T08:56:57;5;4;3
24012;PMS7003;12220;50.194;18.948;2023-02-27T08:59:08;5;5;4
24012;PMS7003;12220;50.194;18.948;2023-02-27T09:01:09;6;5;4
24012;PMS7003;12220;50.194;18.948;2023-02-27T09:03:11;7;6;5
24012;PMS7003;12220;50.194;18.948;2023-02-27T09:05:12;10;9;6
24012;PMS7003;12220;50.194;18.948;2023-02-27T09:07:21;8;7;5
24012;PMS7003;12220;50.194;18.948;2023-02-27T09:09:23;6;6;5
24012;PMS7003;12220;50.194;18.948;2023-02-27T09:11:24;6;6;4
24012;PMS7003;12220;50.194;18.948;2023-02-27T09:13:29;5;5;3
24012;PMS7003;12220;50.194;18.948;2023-02-27T09:15:36;9;7;5
24012;PMS7003;12220;50.194;18.948;2023-02-27T09:17:38;7;7;5
24012;PMS7003;12220;50.194;18.948;2023-02-27T09:19:40;6;6;5
24012;PMS7003;12220;50.194;18.948;2023-02-27T09:21:41;10;4;4
24012;PMS7003;12220;50.194;18.948;2023-02-27T09:23:51;6;6;6
24012;PMS7003;12220;50.194;18.948;2023-02-27T09:25:53;4;3;1
24012;PMS7003;12220;50.194;18.948;2023-02-27T09:27:54;8;8;6
24012;PMS7003;12220;50.194;18.948;2023-02-27T09:29:56;8;6;5
24012;PMS7003;12220;50.194;18.948;2023-02-27T09:32:06;5;5;4
24012;PMS7003;12220;50.194;18.948;2023-02-27T09:34:08;8;8;6
24012;PMS7003;12220;50.194;18.948;2023-02-27T09:36:09;8;7;4
24012;PMS7003;12220;50.194;18.948;2023-02-27T09:38:12;10;6;4
24012;PMS7003;12220;50.194;18.948;2023-02-27T09:40:26;8;8;6
24012;PMS7003;12220;50.194;18.948;2023-02-27T09:42:32;10;5;3
24012;PMS7003;12220;50.194;18.948;2023-02-27T09:44:46;13;11;7
24012;PMS7003;12220;50.194;18.948;2023-02-27T09:46:56;11;11;9
24012;PMS7003;12220;50.194;18.948;2023-02-27T09:49:02;9;9;7
24012;PMS7003;12220;50.194;18.948;2023-02-27T09:51:13;12;10;8
24012;PMS7003;12220;50.194;18.948;2023-02-27T09:53:17;11;9;6
24012;PMS7003;12220;50.194;18.948;2023-02-27T09:55:28;12;9;7
24012;PMS7003;12220;50.194;18.948;2023-02-27T09:59:51;10;9;7
24012;PMS7003;12220;50.194;18.948;2023-02-27T10:06:41;13;13;8
24012;PMS7003;12220;50.194;18.948;2023-02-27T10:11:43;11;10;6
24012;PMS7003;12220;50.194;18.948;2023-02-27T10:16:01;8;8;7
24012;PMS7003;12220;50.194;18.948;2023-02-27T10:22:33;9;9;7
24012;PMS7003;12220;50.194;18.948;2023-02-27T10:24:43;7;7;6
24012;PMS7003;12220;50.194;18.948;2023-02-27T10:26:51;9;9;7
24012;PMS7003;12220;50.194;18.948;2023-02-27T10:28:54;8;8;7
24012;PMS7003;12220;50.194;18.948;2023-02-27T10:30:57;9;7;6
24012;PMS7003;12220;50.194;18.948;2023-02-27T10:37:29;9;5;4
24012;PMS7003;12220;50.194;18.948;2023-02-27T10:39:34;9;8;6
24012;PMS7003;12220;50.194;18.948;2023-02-27T10:41:43;13;10;7
24012;PMS7003;12220;50.194;18.948;2023-02-27T10:43:46;20;12;7
24012;PMS7003;12220;50.194;18.948;2023-02-27T10:45:54;10;7;5
24012;PMS7003;12220;50.194;18.948;2023-02-27T10:47:56;7;7;5
24012;PMS7003;12220;50.194;18.948;2023-02-27T10:50:01;8;5;3
24012;PMS7003;12220;50.194;18.948;2023-02-27T10:52:10;4;4;2
24012;PMS7003;12220;50.194;18.948;2023-02-27T10:56:30;8;6;4
24012;PMS7003;12220;50.194;18.948;2023-02-27T10:58:35;7;6;4
24012;PMS7003;12220;50.194;18.948;2023-02-27T11:00:42;6;6;4
24012;PMS7003;12220;50.194;18.948;2023-02-27T11:02:49;8;7;6
24012;PMS7003;12220;50.194;18.948;2023-02-27T11:04:52;7;5;5
24012;PMS7003;12220;50.194;18.948;2023-02-27T11:06:55;7;4;4
24012;PMS7003;12220;50.194;18.948;2023-02-27T11:18:26;3;3;2
24012;PMS7003;12220;50.194;18.948;2023-02-27T11:20:33;2;2;1
24012;PMS7003;12220;50.194;18.948;2023-02-27T11:27:32;2;2;1
24012;PMS7003;12220;50.194;18.948;2023-02-27T11:29:37;4;3;2
24012;PMS7003;12220;50.194;18.948;2023-02-27T11:32:01;4;4;3
24012;PMS7003;12220;50.194;18.948;2023-02-27T11:38:58;1;1;1
24012;PMS7003;12220;50.194;18.948;2023-02-27T11:41:03;3;3;3
24012;PMS7003;12220;50.194;18.948;2023-02-27T11:52:49;4;4;3
24012;PMS7003;12220;50.194;18.948;2023-02-27T11:54:54;5;5;3
24012;PMS7003;12220;50.194;18.948;2023-02-27T11:59:16;7;2;2
24012;PMS7003;12220;50.194;18.948;2023-02-27T12:01:25;6;5;4
24012;PMS7003;12220;50.194;18.948;2023-02-27T12:05:52;4;4;4
24012;PMS7003;12220;50.194;18.948;2023-02-27T12:08:05;7;6;3
24012;PMS7003;12220;50.194;18.948;2023-02-27T12:12:35;2;2;1
24012;PMS7003;12220;50.194;18.948;2023-02-27T12:14:47;6;6;3
24012;PMS7003;12220;50.194;18.948;2023-02-27T12:16:53;7;7;5
24012;PMS7003;12220;50.194;18.948;2023-02-27T12:21:31;7;7;5
24012;PMS7003;12220;50.194;18.948;2023-02-27T12:23:42;9;5;3
24012;PMS7003;12220;50.194;18.948;2023-02-27T12:33:12;4;4;3
24012;PMS7003;12220;50.194;18.948;2023-02-27T12:37:41;9;5;3
24012;PMS7003;12220;50.194;18.948;2023-02-27T12:39:43;4;3;1
24012;PMS7003;12220;50.194;18.948;2023-02-27T12:41:59;3;3;2
24012;PMS7003;12220;50.194;18.948;2023-02-27T12:44:19;5;5;4
24012;PMS7003;12220;50.194;18.948;2023-02-27T12:46:21;9;9;5
24012;PMS7003;12220;50.194;18.948;2023-02-27T12:50:47;7;4;2
24012;PMS7003;12220;50.194;18.948;2023-02-27T12:53:07;4;4;3
24012;PMS7003;12220;50.194;18.948;2023-02-27T12:55:24;8;3;2
24012;PMS7003;12220;50.194;18.948;2023-02-27T12:57:29;7;6;4
24012;PMS7003;12220;50.194;18.948;2023-02-27T13:01:53;4;3;2
24012;PMS7003;12220;50.194;18.948;2023-02-27T13:04:06;3;3;3
24012;PMS7003;12220;50.194;18.948;2023-02-27T13:10:48;5;5;5
24012;PMS7003;12220;50.194;18.948;2023-02-27T13:15:15;7;7;6
24012;PMS7003;12220;50.194;18.948;2023-02-27T13:17:29;5;3;2
24012;PMS7003;12220;50.194;18.948;2023-02-27T13:19:40;6;5;3
24012;PMS7003;12220;50.194;18.948;2023-02-27T13:21:59;5;4;2
24012;PMS7003;12220;50.194;18.948;2023-02-27T13:26:23;5;5;4
24012;PMS7003;12220;50.194;18.948;2023-02-27T13:28:39;5;5;4
24012;PMS7003;12220;50.194;18.948;2023-02-27T13:30:42;5;4;4
24012;PMS7003;12220;50.194;18.948;2023-02-27T13:37:17;6;6;4
24012;PMS7003;12220;50.194;18.948;2023-02-27T13:41:37;9;5;4
24012;PMS7003;12220;50.194;18.948;2023-02-27T13:43:39;5;3;2
24012;PMS7003;12220;50.194;18.948;2023-02-27T13:47:53;5;5;4
24012;PMS7003;12220;50.194;18.948;2023-02-27T13:52:14;2;2;1
24012;PMS7003;12220;50.194;18.948;2023-02-27T13:54:39;4;4;3
24012;PMS7003;12220;50.194;18.948;2023-02-27T13:58:54;6;6;4
24012;PMS7003;12220;50.194;18.948;2023-02-27T14:00:56;6;6;6
24012;PMS7003;12220;50.194;18.948;2023-02-27T14:03:05;7;6;4
24012;PMS7003;12220;50.194;18.948;2023-02-27T14:10:05;5;4;3
24012;PMS7003;12220;50.194;18.948;2023-02-27T14:18:55;4;4;3
24012;PMS7003;12220;50.194;18.948;2023-02-27T14:20:59;2;2;2
24012;PMS7003;12220;50.194;18.948;2023-02-27T14:23:14;4;4;4
24012;PMS7003;12220;50.194;18.948;2023-02-27T14:28:02;6;6;4
24012;PMS7003;12220;50.194;18.948;2023-02-27T14:32:36;6;6;4
24012;PMS7003;12220;50.194;18.948;2023-02-27T14:34:39;9;7;5
24012;PMS7003;12220;50.194;18.948;2023-02-27T14:38:56;7;6;6
24012;PMS7003;12220;50.194;18.948;2023-02-27T14:41:04;12;12;9
24012;PMS7003;12220;50.194;18.948;2023-02-27T14:45:34;13;13;9
24012;PMS7003;12220;50.194;18.948;2023-02-27T14:47:37;10;9;8
24012;PMS7003;12220;50.194;18.948;2023-02-27T14:49:40;22;22;16
24012;PMS7003;12220;50.194;18.948;2023-02-27T14:51:46;17;14;12
24012;PMS7003;12220;50.194;18.948;2023-02-27T14:56:16;11;10;8
24012;PMS7003;12220;50.194;18.948;2023-02-27T14:58:19;10;10;7
24012;PMS7003;12220;50.194;18.948;2023-02-27T15:02:34;9;9;7
24012;PMS7003;12220;50.194;18.948;2023-02-27T15:04:37;7;7;4
24012;PMS7003;12220;50.194;18.948;2023-02-27T15:06:49;6;6;5
24012;PMS7003;12220;50.194;18.948;2023-02-27T15:08:53;7;7;5
24012;PMS7003;12220;50.194;18.948;2023-02-27T15:11:00;6;6;5
24012;PMS7003;12220;50.194;18.948;2023-02-27T15:13:02;8;8;7
24012;PMS7003;12220;50.194;18.948;2023-02-27T15:15:05;8;8;7
24012;PMS7003;12220;50.194;18.948;2023-02-27T15:17:16;7;7;6
24012;PMS7003;12220;50.194;18.948;2023-02-27T15:19:21;11;10;7
24012;PMS7003;12220;50.194;18.948;2023-02-27T15:21:26;9;7;5
24012;PMS7003;12220;50.194;18.948;2023-02-27T15:23:30;6;6;5
24012;PMS7003;12220;50.194;18.948;2023-02-27T15:25:36;4;4;3
24012;PMS7003;12220;50.194;18.948;2023-02-27T15:27:38;6;6;4
24012;PMS7003;12220;50.194;18.948;2023-02-27T15:29:42;10;6;5
24012;PMS7003;12220;50.194;18.948;2023-02-27T15:31:48;14;11;8
24012;PMS7003;12220;50.194;18.948;2023-02-27T15:33:49;12;9;7
24012;PMS7003;12220;50.194;18.948;2023-02-27T15:35:51;11;10;7
24012;PMS7003;12220;50.194;18.948;2023-02-27T15:37:54;9;9;6
24012;PMS7003;12220;50.194;18.948;2023-02-27T15:39:59;8;8;6
24012;PMS7003;12220;50.194;18.948;2023-02-27T15:42:02;8;7;6
24012;PMS7003;12220;50.194;18.948;2023-02-27T15:44:05;11;9;5
24012;PMS7003;12220;50.194;18.948;2023-02-27T15:46:06;11;7;5
24012;PMS7003;12220;50.194;18.948;2023-02-27T15:48:14;9;9;6
24012;PMS7003;12220;50.194;18.948;2023-02-27T15:50:23;8;7;6
24012;PMS7003;12220;50.194;18.948;2023-02-27T15:52:30;7;7;5
24012;PMS7003;12220;50.194;18.948;2023-02-27T15:54:41;7;5;4
24012;PMS7003;12220;50.194;18.948;2023-02-27T15:56:48;9;8;5
24012;PMS7003;12220;50.194;18.948;2023-02-27T15:58:55;6;5;3
24012;PMS7003;12220;50.194;18.948;2023-02-27T16:01:00;5;5;4
24012;PMS7003;12220;50.194;18.948;2023-02-27T16:03:07;9;9;8
24012;PMS7003;12220;50.194;18.948;2023-02-27T16:07:19;3;3;2
24012;PMS7003;12220;50.194;18.948;2023-02-27T16:09:36;5;5;4
24012;PMS7003;12220;50.194;18.948;2023-02-27T16:11:38;6;5;5
24012;PMS7003;12220;50.194;18.948;2023-02-27T16:13:40;5;5;4
24012;PMS7003;12220;50.194;18.948;2023-02-27T16:15:42;5;5;3
24012;PMS7003;12220;50.194;18.948;2023-02-27T16:17:55;9;5;5
24012;PMS7003;12220;50.194;18.948;2023-02-27T16:19:59;5;5;3
24012;PMS7003;12220;50.194;18.948;2023-02-27T16:26:32;6;5;4
24012;PMS7003;12220;50.194;18.948;2023-02-27T16:28:42;8;7;4
24012;PMS7003;12220;50.194;18.948;2023-02-27T16:30:54;5;5;4
24012;PMS7003;12220;50.194;18.948;2023-02-27T16:32:59;5;5;4
24012;PMS7003;12220;50.194;18.948;2023-02-27T16:37:21;7;6;4
24012;PMS7003;12220;50.194;18.948;2023-02-27T16:39:28;8;8;7
24012;PMS7003;12220;50.194;18.948;2023-02-27T16:41:30;7;7;6
24012;PMS7003;12220;50.194;18.948;2023-02-27T16:43:32;13;7;4
24012;PMS7003;12220;50.194;18.948;2023-02-27T16:45:33;8;7;6
24012;PMS7003;12220;50.194;18.948;2023-02-27T16:47:35;6;6;6
24012;PMS7003;12220;50.194;18.948;2023-02-27T16:49:43;7;6;4
24012;PMS7003;12220;50.194;18.948;2023-02-27T16:51:47;11;7;6
24012;PMS7003;12220;50.194;18.948;2023-02-27T16:53:52;10;10;8
24012;PMS7003;12220;50.194;18.948;2023-02-27T16:55:55;8;8;7
24012;PMS7003;12220;50.194;18.948;2023-02-27T16:57:58;9;8;6
24012;PMS7003;12220;50.194;18.948;2023-02-27T17:00:00;10;9;7
24012;PMS7003;12220;50.194;18.948;2023-02-27T17:02:10;10;10;7
24012;PMS7003;12220;50.194;18.948;2023-02-27T17:04:14;9;9;7
24012;PMS7003;12220;50.194;18.948;2023-02-27T17:06:15;10;10;8
24012;PMS7003;12220;50.194;18.948;2023-02-27T17:08:17;11;7;6
24012;PMS7003;12220;50.194;18.948;2023-02-27T17:10:21;7;6;5
24012;PMS7003;12220;50.194;18.948;2023-02-27T17:12:25;7;6;6
24012;PMS7003;12220;50.194;18.948;2023-02-27T17:14:30;7;7;5
24012;PMS7003;12220;50.194;18.948;2023-02-27T17:18:57;7;7;5
24012;PMS7003;12220;50.194;18.948;2023-02-27T17:21:02;11;11;9
24012;PMS7003;12220;50.194;18.948;2023-02-27T17:25:32;10;6;6
24012;PMS7003;12220;50.194;18.948;2023-02-27T17:27:33;6;6;6
24012;PMS7003;12220;50.194;18.948;2023-02-27T17:29:36;8;7;5
24012;PMS7003;12220;50.194;18.948;2023-02-27T17:31:38;9;9;8
24012;PMS7003;12220;50.194;18.948;2023-02-27T17:33:41;23;15;10
24012;PMS7003;12220;50.194;18.948;2023-02-27T17:35:43;14;13;11
24012;PMS7003;12220;50.194;18.948;2023-02-27T17:37:45;25;23;18
24012;PMS7003;12220;50.194;18.948;2023-02-27T17:42:07;26;21;13
24012;PMS7003;12220;50.194;18.948;2023-02-27T17:46:48;22;17;14
24012;PMS7003;12220;50.194;18.948;2023-02-27T17:48:59;20;20;13
24012;PMS7003;12220;50.194;18.948;2023-02-27T17:51:04;20;19;16
24012;PMS7003;12220;50.194;18.948;2023-02-27T17:53:08;23;17;11
24012;PMS7003;12220;50.194;18.948;2023-02-27T17:59:40;12;12;10
24012;PMS7003;12220;50.194;18.948;2023-02-27T18:01:43;16;13;10